createdAt,value
2022-12-18T00:00:23.981Z,52.00
2022-12-18T00:02:53.850Z,52.42
2022-12-18T00:05:22.739Z,55.95
2022-12-18T00:07:51.199Z,54.63
2022-12-18T00:10:19.745Z,50.65
2022-12-18T00:12:48.150Z,57.03
2022-12-18T00:15:16.599Z,57.88
2022-12-18T00:17:44.970Z,51.72
2022-12-18T00:20:14.869Z,56.50
2022-12-18T00:22:43.409Z,50.72
2022-12-18T00:25:11.750Z,51.50
2022-12-18T00:27:40.291Z,54.00
2022-12-18T00:30:09.664Z,47.88
2022-12-18T00:32:38.156Z,47.72
2022-12-18T00:35:07.893Z,47.60
2022-12-18T00:37:37.649Z,57.92
2022-12-18T00:40:06.999Z,44.35
2022-12-18T00:42:49.250Z,48.78
2022-12-18T00:45:18.057Z,49.58
2022-12-18T00:47:46.443Z,44.10
2022-12-18T00:50:14.874Z,46.03
2022-12-18T00:52:44.723Z,49.92
2022-12-18T00:55:13.870Z,42.65
2022-12-18T00:57:42.656Z,46.30
2022-12-18T01:00:14.493Z,51.80
2022-12-18T01:02:43.702Z,49.40
2022-12-18T01:05:13.962Z,53.20
2022-12-18T01:07:43.942Z,49.10
2022-12-18T01:10:14.240Z,43.78
2022-12-18T01:12:42.583Z,60.75
2022-12-18T01:15:13.703Z,47.75
2022-12-18T01:17:42.502Z,44.53
2022-12-18T01:20:12.666Z,46.97
2022-12-18T01:22:41.676Z,50.30
2022-12-18T01:25:11.683Z,54.22
2022-12-18T01:27:40.152Z,51.17
2022-12-18T01:30:09.708Z,56.17
2022-12-18T01:32:38.151Z,54.63
2022-12-18T01:35:08.211Z,52.03
2022-12-18T01:37:36.620Z,53.17
2022-12-18T01:40:05.956Z,53.35
2022-12-18T01:42:35.744Z,50.05
2022-12-18T01:45:08.259Z,53.30
2022-12-18T01:47:40.949Z,52.67
2022-12-18T01:50:13.454Z,52.20
2022-12-18T01:52:44.469Z,51.10
2022-12-18T01:55:14.389Z,55.72
2022-12-18T01:57:44.479Z,57.85
2022-12-18T02:00:17.256Z,57.90
2022-12-18T02:02:47.579Z,59.20
2022-12-18T02:05:20.806Z,53.47
2022-12-18T02:07:58.628Z,53.20
2022-12-18T02:10:31.037Z,56.28
2022-12-18T02:13:10.131Z,49.38
2022-12-18T02:15:42.657Z,51.17
2022-12-18T02:18:16.227Z,47.13
2022-12-18T02:20:49.774Z,49.40
2022-12-18T02:23:33.354Z,59.95
2022-12-18T02:26:15.383Z,53.83
2022-12-18T02:28:47.353Z,55.35
2022-12-18T09:24:59.767Z,36.80
2022-12-18T09:29:56.617Z,43.22
2022-12-18T09:32:25.067Z,39.67
2022-12-18T09:34:53.464Z,36.95
2022-12-18T09:37:21.868Z,41.45
2022-12-18T09:39:50.280Z,38.17
2022-12-18T09:42:23.836Z,35.53
2022-12-18T09:44:54.480Z,35.80
2022-12-18T09:47:27.341Z,36.20
2022-12-18T09:49:59.999Z,34.55
2022-12-18T09:52:34.380Z,39.85
2022-12-18T09:55:08.791Z,33.75
2022-12-18T09:57:44.466Z,41.05
2022-12-18T10:00:19.394Z,32.67
2022-12-18T10:02:48.890Z,32.40
2022-12-18T10:05:19.699Z,32.55
2022-12-18T10:07:57.633Z,35.90
2022-12-18T10:10:38.456Z,36.30
2022-12-18T10:13:26.722Z,35.28
2022-12-18T10:16:05.595Z,37.83
2022-12-18T10:18:51.419Z,35.80
2022-12-18T10:21:23.852Z,34.15
2022-12-18T10:24:02.352Z,37.33
2022-12-18T10:26:34.876Z,35.70
2022-12-18T10:29:12.963Z,34.90
2022-12-18T10:31:41.889Z,30.75
2022-12-18T10:34:12.174Z,33.28
2022-12-18T10:36:41.006Z,37.33
2022-12-18T10:39:20.380Z,34.30
2022-12-18T10:41:48.830Z,34.25
2022-12-18T10:44:23.382Z,33.38
2022-12-18T10:46:56.903Z,37.53
2022-12-18T10:49:28.369Z,39.72
2022-12-18T10:52:09.238Z,39.53
2022-12-18T10:54:39.853Z,33.85
2022-12-18T10:57:29.259Z,37.30
2022-12-18T11:00:01.274Z,33.53
2022-12-18T11:02:36.726Z,32.65
2022-12-18T11:05:24.760Z,37.13
2022-12-18T11:07:55.963Z,33.50
2022-12-18T11:12:54.354Z,36.83
2022-12-18T11:15:28.475Z,37.70
2022-12-18T11:17:57.133Z,35.35
2022-12-18T11:20:33.644Z,38.95
2022-12-18T11:23:04.643Z,42.35
2022-12-18T11:25:35.746Z,37.85
2022-12-18T11:28:06.901Z,40.67
2022-12-18T11:30:38.474Z,42.20
2022-12-18T11:33:11.436Z,37.28
2022-12-18T11:35:46.304Z,45.00
2022-12-18T11:38:23.717Z,44.83
2022-12-18T11:40:57.772Z,42.70
2022-12-18T11:43:30.503Z,44.72
2022-12-18T11:46:05.844Z,42.10
2022-12-18T11:48:38.463Z,43.45
2022-12-18T11:51:13.170Z,42.85
2022-12-18T11:53:41.571Z,44.35
2022-12-18T11:56:28.012Z,45.95
2022-12-18T11:59:03.044Z,39.03
2022-12-18T12:01:46.399Z,43.30
2022-12-18T12:04:43.091Z,35.95
2022-12-18T12:07:23.945Z,42.78
2022-12-18T12:10:01.619Z,37.63
2022-12-18T12:12:49.022Z,37.00
2022-12-18T12:15:29.747Z,35.40
2022-12-18T12:18:11.111Z,40.13
2022-12-18T12:20:51.990Z,39.05
2022-12-18T12:23:30.174Z,37.65
2022-12-18T12:26:03.733Z,36.55
2022-12-18T12:28:53.883Z,38.63
2022-12-18T12:31:35.167Z,35.63
2022-12-18T12:34:13.961Z,34.75
2022-12-18T12:36:54.944Z,32.65
2022-12-18T12:39:29.247Z,38.45
2022-12-18T12:42:15.848Z,35.72
2022-12-18T12:44:52.776Z,36.92
2022-12-18T12:49:57.035Z,35.63
2022-12-18T12:52:33.190Z,39.15
2022-12-18T12:55:04.458Z,35.92
2022-12-18T12:57:38.535Z,37.22
2022-12-18T13:00:10.901Z,39.00
2022-12-18T13:02:49.527Z,36.83
2022-12-18T13:05:25.583Z,40.50
2022-12-18T13:07:59.297Z,43.38
2022-12-18T13:10:34.201Z,38.75
2022-12-18T13:13:04.233Z,37.28
2022-12-18T13:15:39.976Z,42.80
2022-12-18T13:18:18.722Z,42.88
2022-12-18T13:20:55.161Z,41.33
2022-12-18T13:23:31.346Z,42.65
2022-12-18T13:26:00.785Z,44.72
2022-12-18T13:28:54.781Z,45.75
2022-12-18T13:32:08.810Z,57.97
2022-12-18T13:34:38.521Z,42.45
2022-12-18T13:37:42.200Z,56.85
2022-12-18T13:40:59.668Z,49.15
2022-12-18T13:43:43.772Z,46.20
2022-12-18T13:46:30.960Z,41.65
2022-12-18T13:49:04.042Z,69.72
2022-12-18T13:51:35.058Z,53.60
2022-12-18T13:54:13.167Z,42.33
2022-12-18T13:56:46.828Z,45.72
2022-12-18T13:59:18.653Z,36.30
2022-12-18T14:01:54.319Z,38.10
2022-12-18T14:04:26.002Z,39.03
2022-12-18T14:06:58.269Z,36.13
2022-12-18T14:09:31.970Z,44.22
2022-12-18T14:12:19.705Z,67.25
2022-12-18T14:14:50.351Z,45.10
2022-12-18T14:17:24.690Z,48.70
2022-12-18T14:19:53.761Z,57.35
2022-12-18T14:22:28.837Z,50.30
2022-12-18T14:25:23.838Z,49.92
2022-12-18T14:27:54.678Z,54.63
2022-12-18T14:30:28.233Z,56.63
2022-12-18T14:33:07.870Z,45.55
2022-12-18T14:35:40.400Z,51.65
2022-12-18T14:38:27.108Z,47.40
2022-12-18T14:40:59.113Z,47.72
2022-12-18T14:43:28.447Z,46.20
2022-12-18T14:45:58.127Z,46.88
2022-12-18T14:51:16.798Z,42.78
2022-12-18T14:53:54.072Z,136.27
2022-12-18T14:56:27.511Z,218.40
2022-12-18T14:58:58.481Z,86.60
2022-12-18T15:01:30.069Z,54.17
2022-12-18T15:04:00.118Z,44.80
2022-12-18T15:06:32.551Z,64.50
2022-12-18T15:09:03.330Z,55.95
2022-12-18T15:11:45.396Z,57.72
2022-12-18T15:14:35.729Z,56.58
2022-12-18T15:17:07.268Z,59.15
2022-12-18T15:19:40.639Z,53.92
2022-12-18T15:22:22.300Z,55.38
2022-12-18T15:24:51.624Z,64.75
2022-12-18T15:27:36.363Z,68.60
2022-12-18T15:30:20.088Z,58.17
2022-12-18T15:32:49.871Z,53.95
2022-12-18T15:35:23.543Z,55.78
2022-12-18T15:37:53.377Z,54.60
2022-12-18T15:40:23.794Z,51.17
2022-12-18T15:43:13.934Z,52.55
2022-12-18T15:45:43.305Z,56.58
2022-12-18T15:48:22.241Z,47.83
2022-12-18T15:50:52.808Z,51.05
2022-12-18T15:53:22.943Z,54.92
2022-12-18T15:56:09.146Z,51.85
2022-12-18T15:58:39.318Z,56.40
2022-12-18T16:01:09.688Z,57.20
2022-12-18T16:03:38.802Z,63.45
2022-12-18T16:06:08.341Z,70.75
2022-12-18T16:08:37.117Z,65.40
2022-12-18T16:11:06.333Z,67.47
2022-12-18T16:13:34.742Z,61.17
2022-12-18T16:16:05.359Z,57.00
2022-12-18T16:18:34.445Z,69.88
2022-12-18T16:21:03.283Z,70.85
2022-12-18T16:23:32.573Z,65.63
2022-12-18T16:26:01.460Z,64.72
2022-12-18T16:28:30.248Z,68.88
2022-12-18T16:30:59.050Z,69.13
2022-12-18T16:33:29.160Z,65.47
2022-12-18T16:35:57.684Z,69.78
2022-12-18T16:38:26.364Z,74.15
2022-12-18T16:41:12.553Z,62.75
2022-12-18T16:43:41.422Z,80.30
2022-12-18T16:46:10.300Z,75.18
2022-12-18T16:48:40.387Z,77.78
2022-12-18T16:51:09.189Z,73.53
2022-12-18T16:53:37.762Z,66.10
2022-12-18T16:56:07.204Z,68.03
2022-12-18T16:58:35.747Z,64.38
2022-12-18T17:01:09.359Z,67.60
2022-12-18T17:03:39.793Z,67.15
2022-12-18T17:06:11.177Z,60.35
2022-12-18T17:08:39.889Z,64.50
2022-12-18T17:11:09.145Z,51.80
2022-12-18T17:13:38.436Z,70.45
2022-12-18T17:16:09.020Z,62.00
2022-12-18T17:18:39.124Z,58.42
2022-12-18T17:21:09.817Z,58.83
2022-12-18T17:23:39.347Z,59.72
2022-12-18T17:26:10.605Z,57.25
2022-12-18T17:28:40.626Z,57.03
2022-12-18T17:31:13.371Z,51.65
2022-12-18T17:33:44.194Z,54.95
2022-12-18T17:36:13.289Z,58.25
2022-12-18T17:38:45.797Z,53.47
2022-12-18T17:41:14.643Z,48.85
2022-12-18T17:43:45.873Z,45.97
2022-12-18T17:46:15.824Z,48.13
2022-12-18T17:48:45.857Z,56.35
2022-12-18T17:51:15.016Z,55.65
2022-12-18T17:53:44.497Z,52.03
2022-12-18T17:56:14.963Z,54.30
2022-12-18T17:58:44.460Z,55.20
2022-12-18T18:01:15.124Z,52.22
2022-12-18T18:03:50.369Z,49.50
2022-12-18T18:06:22.939Z,49.55
2022-12-18T18:08:52.316Z,45.38
2022-12-18T18:14:11.455Z,50.70
2022-12-18T18:16:42.277Z,49.70
2022-12-18T18:19:14.188Z,54.00
2022-12-18T18:21:44.867Z,50.92
2022-12-18T18:24:17.180Z,46.40
2022-12-18T18:26:47.055Z,44.28
2022-12-18T18:29:17.751Z,46.65
2022-12-18T18:31:46.452Z,48.72
2022-12-18T18:34:18.162Z,47.97
2022-12-18T18:36:47.111Z,42.70
2022-12-18T18:39:16.390Z,46.92
2022-12-18T18:41:47.716Z,49.08
2022-12-18T18:44:17.869Z,43.10
2022-12-18T18:46:46.722Z,43.55
2022-12-18T18:49:17.110Z,40.85
2022-12-18T18:51:45.936Z,41.05
2022-12-18T18:54:15.195Z,45.43
2022-12-18T18:59:32.751Z,35.72
2022-12-18T19:02:04.225Z,34.13
2022-12-18T19:07:31.259Z,35.35
2022-12-18T19:10:05.103Z,36.83
2022-12-18T19:12:52.406Z,36.72
2022-12-18T19:15:21.770Z,33.70
2022-12-18T19:17:50.933Z,35.03
2022-12-18T19:20:21.565Z,38.10
2022-12-18T19:22:55.800Z,42.90
2022-12-18T19:25:40.722Z,34.10
2022-12-18T19:28:21.345Z,33.35
2022-12-18T19:30:59.371Z,35.20
2022-12-18T19:33:45.656Z,35.30
2022-12-18T19:36:20.411Z,35.17
2022-12-18T19:38:49.708Z,32.10
2022-12-18T19:41:19.465Z,38.58
2022-12-18T19:43:48.454Z,37.28
2022-12-18T19:46:18.949Z,36.50
2022-12-18T19:48:48.392Z,38.65
2022-12-18T19:51:20.746Z,46.67
2022-12-18T19:53:53.685Z,37.65
2022-12-18T19:56:28.863Z,32.03
2022-12-18T19:58:57.818Z,33.55
2022-12-18T20:01:28.661Z,31.85
2022-12-18T20:03:58.841Z,38.03
2022-12-18T20:06:31.171Z,33.28
2022-12-18T20:09:01.950Z,34.97
2022-12-18T20:11:31.031Z,30.95
2022-12-18T20:13:59.714Z,36.28
2022-12-18T20:16:28.386Z,28.57
2022-12-18T20:21:26.998Z,41.28
2022-12-18T20:23:56.785Z,38.97
2022-12-18T20:26:26.040Z,40.42
2022-12-18T20:28:56.181Z,44.97
2022-12-18T20:31:25.826Z,41.78
2022-12-18T20:34:00.274Z,38.55
2022-12-18T20:36:30.666Z,44.55
2022-12-18T20:39:04.037Z,38.90
2022-12-18T20:41:38.692Z,43.22
2022-12-18T20:44:10.448Z,43.63
2022-12-18T20:46:54.633Z,42.83
2022-12-18T20:49:24.304Z,40.45
2022-12-18T20:54:24.273Z,41.28
2022-12-18T20:56:53.166Z,36.90
2022-12-18T20:59:23.350Z,43.38
2022-12-18T21:01:53.232Z,43.58
2022-12-18T21:04:22.535Z,37.47
2022-12-18T21:07:00.811Z,41.58
2022-12-18T21:09:38.479Z,40.03
2022-12-18T21:12:31.633Z,36.78
2022-12-18T21:15:05.352Z,40.25
2022-12-18T21:17:34.715Z,41.90
2022-12-18T21:20:17.305Z,42.35
2022-12-18T21:22:46.760Z,46.58
2022-12-18T21:25:16.804Z,44.30
2022-12-18T21:27:45.216Z,44.75
2022-12-18T21:30:14.966Z,39.28
2022-12-18T21:35:11.662Z,40.85
2022-12-18T21:37:40.207Z,39.20
2022-12-18T21:40:10.101Z,43.40
2022-12-18T21:42:57.254Z,39.85
2022-12-18T21:45:26.003Z,44.53
2022-12-18T21:47:54.389Z,42.70
2022-12-18T21:50:23.414Z,38.58
2022-12-18T21:52:51.955Z,48.92
2022-12-18T21:55:20.557Z,52.60
2022-12-18T21:57:50.361Z,56.28
2022-12-18T22:00:19.829Z,46.35
2022-12-18T22:03:01.221Z,50.50
2022-12-18T22:05:37.552Z,48.75
2022-12-18T22:08:06.837Z,48.28
2022-12-18T22:10:36.282Z,46.85
2022-12-18T22:13:06.872Z,57.63
2022-12-18T22:15:35.442Z,48.78
2022-12-18T22:18:04.111Z,50.55
2022-12-18T22:20:32.805Z,48.92
2022-12-18T22:23:06.192Z,37.40
2022-12-18T22:25:38.944Z,50.20
2022-12-18T22:28:27.160Z,50.67
2022-12-18T22:30:59.091Z,51.83
2022-12-18T22:33:29.050Z,46.70
2022-12-18T22:35:57.548Z,47.03
2022-12-18T22:38:26.156Z,46.13
2022-12-18T22:40:55.886Z,49.53
2022-12-18T22:43:26.046Z,49.47
2022-12-18T22:45:55.282Z,48.20
2022-12-18T22:48:23.770Z,49.85
2022-12-18T22:50:53.447Z,49.70
2022-12-18T22:53:27.430Z,45.17
2022-12-18T22:56:01.806Z,41.55
2022-12-18T22:58:31.507Z,46.15
2022-12-18T23:03:28.305Z,48.47
2022-12-18T23:06:04.462Z,48.28
2022-12-18T23:08:32.973Z,53.13
2022-12-18T23:11:01.708Z,54.08
2022-12-18T23:13:31.517Z,48.93
2022-12-18T23:15:59.979Z,47.80
2022-12-18T23:18:28.442Z,56.88
2022-12-18T23:20:56.853Z,53.45
2022-12-18T23:23:26.414Z,56.30
2022-12-18T23:26:02.092Z,51.45
2022-12-18T23:28:32.744Z,48.97
2022-12-18T23:31:06.933Z,53.58
2022-12-18T23:33:35.553Z,53.50
2022-12-18T23:36:05.457Z,58.78
2022-12-18T23:38:34.799Z,59.13
2022-12-18T23:41:08.332Z,61.50
2022-12-18T23:43:38.587Z,66.68
2022-12-18T23:46:12.501Z,61.72
2022-12-18T23:48:41.315Z,56.78
2022-12-18T23:51:11.793Z,64.17
2022-12-18T23:53:41.090Z,64.78
2022-12-18T23:56:11.476Z,59.83
2022-12-18T23:58:41.427Z,68.28
